createdAt,value
2023-04-22T00:12:39.633Z,12.15
2023-04-22T00:13:41.272Z,10.60
2023-04-22T00:14:42.845Z,9.63
2023-04-22T00:15:44.549Z,11.35
2023-04-22T00:16:46.288Z,10.85
2023-04-22T00:17:48.628Z,9.85
2023-04-22T00:18:50.432Z,9.60
2023-04-22T00:19:52.142Z,11.13
2023-04-22T00:20:53.738Z,10.18
2023-04-22T00:21:55.380Z,9.52
2023-04-22T00:22:56.906Z,9.02
2023-04-22T00:23:59.055Z,12.23
2023-04-22T00:25:00.665Z,10.20
2023-04-22T00:26:02.410Z,10.77
2023-04-22T00:27:04.495Z,10.48
2023-04-22T00:28:06.359Z,12.33
2023-04-22T00:29:08.022Z,11.13
2023-04-22T00:30:10.299Z,12.00
2023-04-22T00:31:11.960Z,10.38
2023-04-22T00:32:13.543Z,10.02
2023-04-22T00:33:15.129Z,15.57
2023-04-22T00:34:18.184Z,13.10
2023-04-22T00:35:19.799Z,10.57
2023-04-22T00:36:21.412Z,13.07
2023-04-22T00:37:23.615Z,12.63
2023-04-22T00:38:25.200Z,13.90
2023-04-22T00:39:26.855Z,10.15
2023-04-22T00:40:28.399Z,12.57
2023-04-22T00:41:31.350Z,11.13
2023-04-22T00:42:33.019Z,12.35
2023-04-22T00:43:34.572Z,11.05
2023-04-22T00:44:36.277Z,10.55
2023-04-22T00:45:38.064Z,9.60
2023-04-22T00:46:40.051Z,11.80
2023-04-22T00:47:41.978Z,10.82
2023-04-22T00:48:43.800Z,10.48
2023-04-22T00:49:45.426Z,11.45
2023-04-22T00:50:46.932Z,10.43
2023-04-22T00:51:48.510Z,9.48
2023-04-22T00:52:50.123Z,10.63
2023-04-22T00:53:51.732Z,12.63
2023-04-22T00:54:53.408Z,12.52
2023-04-22T00:55:54.981Z,10.48
2023-04-22T00:56:58.099Z,12.43
2023-04-22T00:58:00.730Z,10.10
2023-04-22T00:59:02.467Z,12.43
2023-04-22T01:00:05.868Z,13.23
2023-04-22T01:01:07.532Z,12.48
2023-04-22T01:02:09.337Z,12.45
2023-04-22T01:03:12.080Z,11.45
2023-04-22T01:04:15.117Z,11.15
2023-04-22T01:05:16.777Z,9.95
2023-04-22T01:06:22.415Z,11.48
2023-04-22T01:07:24.041Z,8.95
2023-04-22T01:08:29.847Z,10.77
2023-04-22T01:09:31.426Z,12.80
2023-04-22T01:10:33.021Z,11.88
2023-04-22T01:11:35.915Z,10.95
2023-04-22T01:12:37.436Z,11.70
2023-04-22T01:13:39.056Z,9.02
2023-04-22T01:14:40.841Z,9.38
2023-04-22T01:15:42.512Z,11.20
2023-04-22T01:16:44.758Z,9.68
2023-04-22T01:17:46.570Z,11.17
2023-04-22T01:18:48.336Z,12.97
2023-04-22T01:19:49.966Z,12.30
2023-04-22T01:20:51.856Z,13.32
2023-04-22T01:21:54.041Z,13.25
2023-04-22T01:22:57.678Z,14.68
2023-04-22T01:24:00.144Z,15.90
2023-04-22T01:25:02.605Z,13.27
2023-04-22T01:26:04.460Z,11.60
2023-04-22T01:27:06.051Z,13.27
2023-04-22T01:28:07.693Z,10.85
2023-04-22T01:29:09.495Z,10.55
2023-04-22T01:30:11.720Z,8.98
2023-04-22T01:31:13.353Z,9.30
2023-04-22T01:32:14.968Z,11.40
2023-04-22T01:33:17.411Z,9.13
2023-04-22T01:34:19.050Z,9.35
2023-04-22T01:35:20.688Z,10.55
2023-04-22T01:36:22.264Z,8.50
2023-04-22T01:37:23.885Z,9.10
2023-04-22T01:38:25.488Z,11.30
2023-04-22T01:39:27.313Z,9.88
2023-04-22T01:40:29.860Z,8.60
2023-04-22T01:41:31.686Z,9.63
2023-04-22T01:42:33.403Z,9.02
2023-04-22T01:43:35.184Z,9.23
2023-04-22T01:44:36.707Z,8.95
2023-04-22T01:45:38.413Z,7.80
2023-04-22T01:46:40.083Z,11.17
2023-04-22T01:47:41.727Z,11.45
2023-04-22T01:48:43.825Z,12.15
2023-04-22T01:49:45.429Z,12.43
2023-04-22T01:50:47.042Z,10.75
2023-04-22T01:51:48.700Z,10.13
2023-04-22T01:52:50.344Z,13.60
2023-04-22T01:53:52.024Z,11.32
2023-04-22T01:54:53.596Z,9.93
2023-04-22T01:55:55.186Z,9.60
2023-04-22T01:56:58.774Z,10.23
2023-04-22T01:58:00.358Z,8.00
2023-04-22T01:59:02.011Z,8.27
2023-04-22T02:00:05.699Z,8.90
2023-04-22T02:01:08.953Z,9.13
2023-04-22T02:02:10.820Z,9.65
2023-04-22T02:03:12.630Z,13.80
2023-04-22T02:04:14.475Z,9.90
2023-04-22T02:05:16.337Z,8.80
2023-04-22T02:06:17.896Z,9.48
2023-04-22T02:07:19.544Z,8.82
2023-04-22T02:08:21.148Z,10.38
2023-04-22T02:09:22.785Z,8.70
2023-04-22T02:10:24.399Z,10.05
2023-04-22T02:11:25.912Z,8.68
2023-04-22T02:12:27.576Z,9.43
2023-04-22T02:13:39.106Z,9.35
2023-04-22T02:14:40.747Z,9.73
2023-04-22T02:15:42.400Z,8.57
2023-04-22T02:16:44.287Z,9.07
2023-04-22T02:17:46.409Z,11.27
2023-04-22T02:18:47.962Z,11.60
2023-04-22T02:19:49.589Z,8.00
2023-04-22T02:20:51.224Z,8.40
2023-04-22T02:21:52.825Z,11.32
2023-04-22T02:22:54.464Z,10.85
2023-04-22T02:23:56.019Z,10.45
2023-04-22T02:24:57.696Z,11.00
2023-04-22T02:25:59.244Z,11.45
2023-04-22T02:27:01.503Z,9.52
2023-04-22T02:28:03.141Z,14.13
2023-04-22T02:29:04.687Z,13.85
2023-04-22T02:30:07.012Z,12.52
2023-04-22T02:31:08.582Z,9.30
2023-04-22T02:32:10.302Z,11.23
2023-04-22T02:33:12.040Z,8.88
2023-04-22T02:34:13.535Z,8.85
2023-04-22T02:35:15.165Z,8.68
2023-04-22T02:36:16.930Z,8.10
2023-04-22T02:37:19.369Z,8.82
2023-04-22T02:38:21.011Z,9.77
2023-04-22T02:39:22.600Z,8.13
2023-04-22T02:40:24.231Z,10.18
2023-04-22T02:41:26.318Z,12.13
2023-04-22T02:42:27.963Z,8.90
2023-04-22T02:43:29.559Z,9.88
2023-04-22T02:44:31.184Z,7.47
2023-04-22T02:45:32.737Z,7.55
2023-04-22T02:46:34.307Z,7.83
2023-04-22T02:47:35.972Z,7.80
2023-04-22T02:48:37.626Z,6.85
2023-04-22T02:49:39.502Z,9.55
2023-04-22T02:50:41.356Z,8.27
2023-04-22T02:51:42.939Z,10.50
2023-04-22T02:52:44.530Z,8.45
2023-04-22T02:53:46.180Z,9.13
2023-04-22T02:54:47.743Z,9.18
2023-04-22T02:55:49.383Z,7.47
2023-04-22T02:56:51.138Z,10.05
2023-04-22T02:57:52.706Z,7.35
2023-04-22T02:58:54.292Z,9.18
2023-04-22T02:59:57.175Z,9.82
2023-04-22T03:00:58.823Z,8.98
2023-04-22T03:02:00.513Z,11.85
2023-04-22T03:03:02.185Z,7.35
2023-04-22T03:04:04.176Z,8.90
2023-04-22T03:05:06.087Z,11.15
2023-04-22T03:06:07.718Z,7.70
2023-04-22T03:07:09.303Z,9.30
2023-04-22T03:08:11.127Z,9.63
2023-04-22T03:09:12.726Z,12.02
2023-04-22T03:10:14.314Z,8.13
2023-04-22T03:11:15.976Z,7.38
2023-04-22T03:12:17.746Z,9.05
2023-04-22T03:13:19.366Z,8.98
2023-04-22T03:14:21.027Z,8.20
2023-04-22T03:15:22.671Z,7.50
2023-04-22T03:16:24.599Z,7.78
2023-04-22T03:17:26.269Z,7.53
2023-04-22T03:18:27.879Z,7.80
2023-04-22T03:19:29.545Z,8.77
2023-04-22T03:20:31.089Z,7.30
2023-04-22T03:21:32.832Z,7.35
2023-04-22T03:22:34.524Z,9.52
2023-04-22T03:23:36.210Z,8.82
2023-04-22T03:24:38.405Z,10.48
2023-04-22T03:25:39.995Z,8.38
2023-04-22T03:26:41.599Z,8.63
2023-04-22T03:27:43.218Z,11.02
2023-04-22T03:28:44.738Z,10.43
2023-04-22T03:29:46.688Z,10.45
2023-04-22T03:30:48.715Z,10.75
2023-04-22T03:31:50.375Z,8.75
2023-04-22T03:32:53.709Z,10.90
2023-04-22T03:33:55.409Z,10.27
2023-04-22T03:34:57.042Z,10.70
2023-04-22T03:35:59.640Z,8.93
2023-04-22T03:37:01.249Z,9.32
2023-04-22T03:38:02.930Z,8.60
2023-04-22T03:39:04.449Z,10.20
2023-04-22T03:40:06.485Z,9.43
2023-04-22T03:41:08.101Z,8.55
2023-04-22T03:42:10.936Z,10.15
2023-04-22T03:43:12.501Z,10.40
2023-04-22T03:44:14.097Z,7.80
2023-04-22T03:45:15.841Z,10.18
2023-04-22T03:46:17.438Z,7.63
2023-04-22T03:47:18.990Z,7.82
2023-04-22T03:48:20.986Z,8.35
2023-04-22T03:49:22.552Z,9.90
2023-04-22T03:50:24.153Z,8.90
2023-04-22T03:51:25.790Z,10.48
2023-04-22T03:52:27.399Z,8.50
2023-04-22T03:53:29.427Z,8.43
2023-04-22T03:54:31.515Z,8.65
2023-04-22T03:55:33.588Z,9.35
2023-04-22T03:56:35.289Z,7.63
2023-04-22T03:57:36.859Z,8.25
2023-04-22T03:58:38.362Z,8.95
2023-04-22T03:59:40.162Z,7.55
2023-04-22T04:00:42.042Z,8.93
2023-04-22T04:01:43.713Z,8.93
2023-04-22T04:02:45.726Z,8.05
2023-04-22T04:03:47.609Z,7.68
2023-04-22T04:04:49.653Z,8.07
2023-04-22T04:05:51.613Z,10.70
2023-04-22T04:06:53.233Z,9.18
2023-04-22T04:07:54.784Z,7.60
2023-04-22T04:08:56.300Z,12.60
2023-04-22T04:09:57.827Z,8.13
2023-04-22T04:10:59.512Z,8.82
2023-04-22T04:12:01.358Z,11.00
2023-04-22T04:13:03.063Z,8.82
2023-04-22T04:14:04.700Z,8.45
2023-04-22T04:15:06.629Z,10.30
2023-04-22T04:16:08.443Z,8.20
2023-04-22T04:17:10.222Z,9.38
2023-04-22T04:18:12.286Z,10.18
2023-04-22T04:19:13.878Z,9.00
2023-04-22T04:20:16.004Z,7.80
2023-04-22T04:21:17.816Z,9.55
2023-04-22T04:22:19.818Z,10.32
2023-04-22T04:23:21.375Z,8.77
2023-04-22T04:24:22.935Z,8.80
2023-04-22T04:25:24.489Z,8.05
2023-04-22T04:26:27.781Z,8.25
2023-04-22T04:27:29.735Z,8.98
2023-04-22T04:28:33.048Z,7.50
2023-04-22T04:29:35.124Z,8.40
2023-04-22T04:30:37.839Z,8.07
2023-04-22T04:31:39.448Z,8.48
2023-04-22T04:32:41.146Z,9.27
2023-04-22T04:33:42.878Z,9.80
2023-04-22T04:34:44.406Z,9.60
2023-04-22T04:35:45.938Z,9.18
2023-04-22T04:36:47.592Z,7.35
2023-04-22T04:37:50.912Z,9.95
2023-04-22T04:38:55.162Z,8.90
2023-04-22T04:39:59.438Z,8.73
2023-04-22T04:41:01.781Z,8.93
2023-04-22T04:42:04.282Z,10.52
2023-04-22T04:43:08.749Z,11.18
2023-04-22T04:44:10.667Z,12.13
2023-04-22T04:45:12.254Z,9.65
2023-04-22T04:46:14.275Z,10.93
2023-04-22T04:47:16.252Z,11.18
2023-04-22T04:48:20.038Z,9.10
2023-04-22T04:49:21.702Z,11.27
2023-04-22T04:50:23.379Z,10.88
2023-04-22T04:51:25.005Z,10.45
2023-04-22T04:52:27.268Z,9.52
2023-04-22T04:53:28.885Z,7.93
2023-04-22T04:54:30.587Z,10.48
2023-04-22T04:55:32.157Z,8.63
2023-04-22T04:56:33.895Z,8.95
2023-04-22T04:57:37.816Z,8.85
2023-04-22T04:58:40.018Z,8.98
2023-04-22T04:59:41.766Z,9.15
2023-04-22T05:00:43.605Z,12.70
2023-04-22T05:01:45.307Z,10.25
2023-04-22T05:02:47.174Z,9.88
2023-04-22T05:03:49.150Z,8.35
2023-04-22T05:04:51.061Z,11.05
2023-04-22T05:05:52.847Z,12.90
2023-04-22T05:06:54.434Z,13.25
2023-04-22T05:07:56.113Z,9.32
2023-04-22T05:08:57.708Z,14.07
2023-04-22T05:10:00.457Z,13.57
2023-04-22T05:11:02.096Z,13.35
2023-04-22T05:12:04.364Z,11.07
2023-04-22T05:13:06.080Z,12.40
2023-04-22T05:14:07.729Z,14.02
2023-04-22T05:15:09.455Z,11.35
2023-04-22T05:16:11.207Z,10.27
2023-04-22T05:17:13.273Z,14.00
2023-04-22T05:18:14.976Z,10.43
2023-04-22T05:19:16.616Z,8.88
2023-04-22T05:20:18.235Z,10.15
2023-04-22T05:21:20.484Z,8.23
2023-04-22T05:22:22.107Z,11.18
2023-04-22T05:23:23.795Z,9.13
2023-04-22T05:24:25.536Z,11.27
2023-04-22T05:25:27.151Z,11.27
2023-04-22T05:26:28.794Z,11.00
2023-04-22T05:27:30.836Z,10.27
2023-04-22T05:28:32.448Z,9.55
2023-04-22T05:29:34.048Z,10.25
2023-04-22T05:30:35.721Z,9.13
2023-04-22T05:31:37.287Z,10.18
2023-04-22T05:32:39.089Z,11.50
2023-04-22T05:33:40.891Z,12.03
2023-04-22T05:34:42.448Z,11.50
2023-04-22T05:35:44.073Z,10.35
2023-04-22T05:36:45.643Z,10.35
2023-04-22T05:37:47.157Z,11.73
2023-04-22T05:38:48.810Z,9.98
2023-04-22T05:39:50.517Z,11.63
2023-04-22T05:40:52.077Z,9.75
2023-04-22T05:41:55.255Z,9.68
2023-04-22T05:42:57.276Z,11.40
2023-04-22T05:43:58.890Z,9.25
2023-04-22T05:45:00.798Z,12.40
2023-04-22T05:46:02.571Z,12.32
2023-04-22T05:47:04.203Z,9.90
2023-04-22T05:48:06.040Z,10.55
2023-04-22T05:49:07.723Z,9.90
2023-04-22T05:50:09.505Z,11.50
2023-04-22T05:51:11.105Z,11.15
2023-04-22T05:52:12.698Z,10.35
2023-04-22T05:53:14.210Z,8.63
2023-04-22T05:54:15.956Z,10.02
2023-04-22T05:55:17.656Z,9.65
2023-04-22T05:56:20.223Z,9.73
2023-04-22T05:57:21.776Z,10.88
2023-04-22T05:58:23.497Z,9.23
2023-04-22T05:59:25.113Z,10.07
2023-04-22T06:00:26.741Z,11.32
2023-04-22T06:01:28.349Z,11.02
2023-04-22T06:02:30.102Z,8.10
2023-04-22T06:03:31.978Z,12.15
2023-04-22T06:04:37.053Z,11.93
2023-04-22T06:05:39.202Z,10.75
2023-04-22T06:06:40.907Z,9.75
2023-04-22T06:07:42.571Z,10.13
2023-04-22T06:08:44.180Z,10.93
2023-04-22T06:09:45.883Z,11.18
2023-04-22T06:10:47.508Z,10.65
2023-04-22T06:11:49.086Z,10.50
2023-04-22T06:12:50.691Z,10.90
2023-04-22T06:13:52.962Z,8.45
2023-04-22T06:14:54.589Z,10.85
2023-04-22T06:15:56.664Z,10.07
2023-04-22T06:16:58.220Z,12.30
2023-04-22T06:17:59.878Z,11.02
2023-04-22T06:19:01.718Z,10.02
2023-04-22T06:20:03.731Z,9.85
2023-04-22T06:21:05.542Z,10.02
2023-04-22T06:22:07.111Z,11.83
2023-04-22T06:23:08.749Z,9.27
2023-04-22T06:24:11.658Z,8.63
2023-04-22T06:25:13.341Z,11.38
2023-04-22T06:26:14.950Z,11.85
2023-04-22T06:27:16.556Z,10.85
2023-04-22T06:28:18.159Z,9.65
2023-04-22T06:29:19.734Z,10.57
2023-04-22T06:30:21.369Z,10.73
2023-04-22T06:31:23.026Z,9.50
2023-04-22T06:32:24.747Z,11.38
2023-04-22T06:33:26.470Z,10.85
2023-04-22T06:34:28.025Z,11.18
2023-04-22T06:35:29.676Z,10.57
2023-04-22T06:36:32.294Z,10.85
2023-04-22T06:37:33.928Z,12.88
2023-04-22T06:38:35.523Z,10.70
2023-04-22T06:39:37.298Z,9.63
2023-04-22T06:40:39.168Z,9.45
2023-04-22T06:41:42.148Z,10.07
2023-04-22T06:42:43.817Z,10.35
2023-04-22T06:43:45.544Z,9.85
2023-04-22T06:44:47.089Z,8.68
2023-04-22T06:45:48.741Z,10.18
2023-04-22T06:46:50.375Z,11.30
2023-04-22T06:47:54.941Z,10.50
2023-04-22T06:48:56.576Z,8.30
2023-04-22T06:49:58.168Z,10.40
2023-04-22T06:50:59.829Z,10.35
2023-04-22T06:52:01.801Z,13.95
2023-04-22T06:53:03.392Z,10.63
2023-04-22T06:54:08.037Z,9.90
2023-04-22T06:55:09.939Z,10.68
2023-04-22T06:56:11.879Z,11.32
2023-04-22T06:57:13.499Z,11.48
2023-04-22T06:58:15.045Z,11.95
2023-04-22T06:59:16.588Z,10.88
2023-04-22T07:00:18.385Z,11.73
2023-04-22T07:01:20.085Z,12.07
2023-04-22T07:02:22.099Z,13.30
2023-04-22T07:03:24.157Z,10.65
2023-04-22T07:04:27.832Z,11.32
2023-04-22T07:05:29.441Z,10.60
2023-04-22T07:06:31.012Z,9.43
2023-04-22T07:07:32.745Z,9.98
2023-04-22T07:08:34.305Z,11.73
2023-04-22T07:09:36.369Z,10.15
2023-04-22T07:10:38.011Z,12.07
2023-04-22T07:11:39.705Z,10.13
2023-04-22T07:12:41.380Z,8.82
2023-04-22T07:13:42.945Z,10.48
2023-04-22T07:14:45.266Z,9.52
2023-04-22T07:15:47.041Z,9.10
2023-04-22T07:16:48.642Z,8.88
2023-04-22T07:17:50.287Z,8.63
2023-04-22T07:18:51.961Z,8.75
2023-04-22T07:19:53.897Z,10.48
2023-04-22T07:20:55.515Z,8.52
2023-04-22T07:21:57.176Z,8.17
2023-04-22T07:22:58.710Z,8.10
2023-04-22T07:24:00.296Z,8.23
2023-04-22T07:25:01.826Z,8.38
2023-04-22T07:26:03.565Z,10.35
2023-04-22T07:27:05.231Z,8.50
2023-04-22T07:28:06.907Z,8.05
2023-04-22T07:29:08.597Z,8.10
2023-04-22T07:30:11.535Z,8.80
2023-04-22T07:31:13.223Z,7.97
2023-04-22T07:32:14.850Z,10.05
2023-04-22T07:33:16.427Z,8.95
2023-04-22T07:34:18.570Z,9.57
2023-04-22T07:35:20.174Z,9.15
2023-04-22T07:36:21.770Z,10.27
2023-04-22T07:37:23.576Z,8.60
2023-04-22T07:38:25.844Z,9.23
2023-04-22T07:39:27.440Z,9.25
2023-04-22T07:40:29.059Z,9.63
2023-04-22T07:41:30.625Z,8.88
2023-04-22T07:42:32.382Z,7.55
2023-04-22T07:43:33.950Z,9.93
2023-04-22T07:44:38.175Z,8.15
2023-04-22T07:45:40.972Z,10.70
2023-04-22T07:46:42.944Z,10.20
2023-04-22T07:47:44.620Z,8.35
2023-04-22T07:48:46.173Z,9.13
2023-04-22T07:49:47.718Z,10.30
2023-04-22T07:54:29.572Z,8.88
2023-04-22T07:55:31.695Z,11.90
2023-04-22T07:56:33.713Z,8.93
2023-04-22T07:57:38.914Z,7.68
2023-04-22T07:58:40.688Z,10.30
2023-04-22T07:59:42.525Z,10.10
2023-04-22T08:00:44.262Z,7.88
2023-04-22T08:01:48.596Z,9.57
2023-04-22T08:02:50.261Z,8.43
2023-04-22T08:03:52.131Z,7.88
2023-04-22T08:04:54.052Z,8.18
2023-04-22T08:05:58.400Z,11.73
2023-04-22T08:07:01.832Z,8.65
2023-04-22T08:08:03.549Z,8.23
2023-04-22T08:09:05.209Z,8.48
2023-04-22T08:10:07.216Z,6.70
2023-04-22T08:11:08.768Z,9.52
2023-04-22T08:12:10.557Z,7.30
2023-04-22T08:13:12.208Z,9.60
2023-04-22T08:14:13.803Z,8.98
2023-04-22T08:15:15.642Z,7.88
2023-04-22T08:16:17.465Z,8.38
2023-04-22T08:17:22.260Z,8.63
2023-04-22T08:18:23.988Z,6.03
2023-04-22T08:19:25.548Z,8.02
2023-04-22T08:20:27.207Z,8.90
2023-04-22T08:21:28.826Z,8.60
2023-04-22T08:22:30.568Z,10.20
2023-04-22T08:23:32.619Z,7.90
2023-04-22T08:24:34.218Z,7.68
2023-04-22T08:25:36.363Z,10.38
2023-04-22T08:26:38.509Z,7.18
2023-04-22T08:27:40.277Z,10.82
2023-04-22T08:28:42.491Z,6.28
2023-04-22T08:29:44.352Z,11.00
2023-04-22T08:30:46.573Z,9.95
2023-04-22T08:31:48.164Z,8.77
2023-04-22T08:32:49.846Z,7.80
2023-04-22T08:33:51.574Z,6.25
2023-04-22T08:34:54.212Z,6.28
2023-04-22T08:35:59.395Z,7.05
2023-04-22T08:37:01.009Z,6.82
2023-04-22T08:38:02.654Z,6.38
2023-04-22T08:39:04.247Z,9.18
2023-04-22T08:40:06.184Z,5.53
2023-04-22T08:41:08.611Z,7.93
2023-04-22T08:42:10.844Z,7.60
2023-04-22T08:43:12.512Z,7.30
2023-04-22T08:44:14.707Z,6.75
2023-04-22T08:45:17.107Z,8.98
2023-04-22T08:46:22.098Z,6.75
2023-04-22T08:47:25.339Z,5.88
2023-04-22T08:48:27.170Z,6.35
2023-04-22T08:49:30.026Z,5.90
2023-04-22T08:50:33.064Z,5.22
2023-04-22T08:51:35.058Z,5.32
2023-04-22T08:52:36.769Z,5.90
2023-04-22T08:53:38.320Z,5.68
2023-04-22T08:54:39.982Z,6.35
2023-04-22T08:55:44.503Z,6.75
2023-04-22T08:56:46.209Z,5.65
2023-04-22T08:57:48.029Z,5.95
2023-04-22T08:58:49.864Z,8.15
2023-04-22T08:59:51.585Z,6.40
2023-04-22T09:00:56.178Z,7.40
2023-04-22T09:01:58.715Z,5.97
2023-04-22T09:03:02.710Z,5.18
2023-04-22T09:04:05.186Z,5.13
2023-04-22T09:05:08.114Z,7.05
2023-04-22T09:06:10.852Z,5.70
2023-04-22T09:07:15.524Z,6.07
2023-04-22T09:08:17.205Z,4.65
2023-04-22T09:09:19.560Z,5.40
2023-04-22T09:10:21.176Z,6.80
2023-04-22T09:11:22.945Z,4.22
2023-04-22T09:12:27.815Z,10.80
2023-04-22T09:13:29.438Z,6.45
2023-04-22T09:14:32.170Z,5.95
2023-04-22T09:15:33.970Z,5.25
2023-04-22T09:16:41.748Z,5.30
2023-04-22T09:17:43.850Z,4.82
2023-04-22T09:18:48.340Z,7.00
2023-04-22T09:19:59.924Z,5.13
2023-04-22T09:21:01.818Z,9.02
2023-04-22T09:22:03.526Z,7.88
2023-04-22T09:23:05.363Z,5.60
2023-04-22T09:24:07.892Z,5.05
2023-04-22T09:25:19.377Z,4.57
2023-04-22T09:26:22.500Z,4.07
2023-04-22T09:27:25.000Z,3.95
2023-04-22T09:28:26.812Z,7.10
2023-04-22T09:29:31.958Z,6.35
2023-04-22T09:30:34.548Z,5.15
2023-04-22T09:31:38.204Z,4.65
2023-04-22T09:32:39.856Z,6.50
2023-04-22T09:33:41.628Z,4.78
2023-04-22T09:34:50.759Z,7.30
2023-04-22T09:35:52.298Z,4.60
2023-04-22T09:36:54.212Z,3.53
2023-04-22T09:37:56.318Z,4.85
2023-04-22T09:38:59.679Z,3.35
2023-04-22T09:40:01.251Z,5.18
2023-04-22T09:41:08.748Z,4.40
2023-04-22T09:42:11.491Z,5.30
2023-04-22T09:43:19.972Z,4.57
2023-04-22T09:44:21.608Z,4.55
2023-04-22T09:45:35.169Z,5.55
2023-04-22T09:46:36.992Z,4.75
2023-04-22T09:47:39.017Z,6.70
2023-04-22T09:48:44.484Z,4.03
2023-04-22T09:49:49.877Z,4.38
2023-04-22T09:50:51.800Z,3.85
2023-04-22T09:51:59.876Z,5.70
2023-04-22T09:53:02.713Z,4.85
2023-04-22T09:54:06.651Z,4.50
2023-04-22T09:55:09.523Z,5.38
2023-04-22T09:56:11.551Z,3.20
2023-04-22T09:57:15.419Z,3.63
2023-04-22T09:58:17.836Z,3.80
2023-04-22T09:59:21.199Z,3.40
2023-04-22T10:00:24.401Z,4.78
2023-04-22T10:01:35.174Z,6.68
2023-04-22T10:02:37.021Z,6.43
2023-04-22T10:03:38.816Z,4.75
2023-04-22T10:04:41.196Z,4.25
2023-04-22T10:05:45.071Z,6.07
2023-04-22T10:06:47.622Z,5.18
2023-04-22T10:07:49.287Z,5.40
2023-04-22T10:08:50.957Z,3.67
2023-04-22T10:09:52.472Z,7.35
2023-04-22T10:10:54.337Z,5.60
2023-04-22T10:11:58.838Z,3.42
2023-04-22T10:13:01.025Z,3.50
2023-04-22T10:14:02.615Z,4.40
2023-04-22T10:15:04.921Z,4.15
2023-04-22T10:16:07.162Z,4.50
2023-04-22T10:17:09.187Z,5.93
2023-04-22T10:18:13.100Z,4.03
2023-04-22T10:19:20.558Z,4.05
2023-04-22T10:20:22.937Z,3.45
2023-04-22T10:21:26.358Z,4.70
2023-04-22T10:22:27.979Z,4.93
2023-04-22T10:23:32.482Z,6.00
2023-04-22T10:24:37.787Z,4.85
2023-04-22T10:25:40.289Z,3.40
2023-04-22T10:26:56.895Z,3.70
2023-04-22T10:28:03.454Z,4.88
2023-04-22T10:29:17.187Z,3.65
2023-04-22T10:30:27.414Z,4.72
2023-04-22T10:31:29.118Z,3.65
2023-04-22T10:32:31.565Z,4.35
2023-04-22T10:33:34.934Z,4.60
2023-04-22T10:34:36.838Z,2.85
2023-04-22T10:35:38.476Z,5.57
2023-04-22T10:36:52.923Z,3.40
2023-04-22T10:37:54.757Z,3.50
2023-04-22T10:38:56.475Z,3.47
2023-04-22T10:40:08.942Z,4.47
2023-04-22T10:41:14.383Z,3.88
2023-04-22T10:42:16.149Z,3.60
2023-04-22T10:43:19.676Z,2.95
2023-04-22T10:44:22.719Z,4.70
2023-04-22T10:45:25.036Z,4.00
2023-04-22T10:46:38.058Z,3.63
2023-04-22T10:47:42.181Z,5.93
2023-04-22T10:48:50.294Z,3.40
2023-04-22T10:49:52.035Z,5.47
2023-04-22T10:50:53.612Z,4.20
2023-04-22T10:51:58.484Z,3.65
2023-04-22T10:53:03.431Z,3.92
2023-04-22T10:54:05.144Z,3.10
2023-04-22T10:55:06.888Z,4.28
2023-04-22T10:56:17.987Z,3.78
2023-04-22T10:57:22.777Z,3.50
2023-04-22T10:58:25.011Z,3.75
2023-04-22T10:59:26.636Z,2.92
2023-04-22T11:00:41.784Z,4.60
2023-04-22T11:01:52.506Z,5.75
2023-04-22T11:02:55.937Z,4.22
2023-04-22T11:04:17.771Z,3.95
2023-04-22T11:05:27.573Z,3.75
2023-04-22T11:06:30.559Z,4.60
2023-04-22T11:07:34.396Z,3.20
2023-04-22T11:08:35.978Z,4.55
2023-04-22T11:09:41.330Z,4.05
2023-04-22T11:10:44.884Z,3.75
2023-04-22T11:11:46.676Z,4.32
2023-04-22T11:12:49.794Z,5.78
2023-04-22T11:13:52.144Z,3.67
2023-04-22T11:14:54.185Z,3.40
2023-04-22T11:15:55.973Z,4.38
2023-04-22T11:16:57.593Z,4.60
2023-04-22T11:17:59.372Z,4.47
2023-04-22T11:19:01.143Z,4.97
2023-04-22T11:20:03.734Z,3.63
2023-04-22T11:21:09.533Z,5.28
2023-04-22T11:22:11.656Z,4.82
2023-04-22T11:23:17.023Z,5.75
2023-04-22T11:24:19.419Z,3.75
2023-04-22T11:25:21.693Z,3.95
2023-04-22T11:26:36.134Z,3.50
2023-04-22T11:27:38.655Z,3.78
2023-04-22T11:28:45.839Z,3.90
2023-04-22T11:29:59.398Z,3.88
2023-04-22T11:31:02.125Z,5.90
2023-04-22T11:32:03.736Z,4.55
2023-04-22T11:33:05.410Z,4.97
2023-04-22T11:34:08.930Z,4.65
2023-04-22T11:35:11.777Z,5.85
2023-04-22T15:58:37.189Z,3.80
2023-04-22T15:59:39.220Z,3.60
2023-04-22T16:00:41.301Z,5.65
2023-04-22T16:01:45.768Z,3.88
2023-04-22T16:02:55.723Z,3.60
2023-04-22T16:03:57.801Z,5.05
2023-04-22T16:04:59.818Z,2.40
2023-04-22T16:06:01.453Z,2.90
2023-04-22T16:07:04.111Z,4.85
2023-04-22T16:08:05.704Z,4.63
2023-04-22T16:09:07.458Z,5.72
2023-04-22T16:10:09.537Z,5.35
2023-04-22T16:11:11.568Z,6.38
2023-04-22T16:12:13.976Z,5.93
2023-04-22T16:13:15.913Z,5.68
2023-04-22T16:14:17.512Z,2.88
2023-04-22T16:15:19.205Z,3.65
2023-04-22T16:16:20.879Z,3.15
2023-04-22T16:17:22.605Z,4.20
2023-04-22T16:18:24.923Z,2.90
2023-04-22T16:19:26.527Z,2.25
2023-04-22T16:20:28.370Z,3.13
2023-04-22T16:21:31.146Z,3.45
2023-04-22T16:22:32.953Z,8.38
2023-04-22T16:23:34.872Z,9.98
2023-04-22T16:24:36.480Z,7.18
2023-04-22T16:25:38.581Z,5.80
2023-04-22T16:26:40.374Z,5.82
2023-04-22T16:27:42.044Z,5.38
2023-04-22T16:28:43.899Z,2.85
2023-04-22T16:29:45.851Z,5.80
2023-04-22T16:30:47.584Z,3.83
2023-04-22T16:31:49.184Z,6.88
2023-04-22T16:32:51.044Z,10.43
2023-04-22T16:33:52.700Z,6.78
2023-04-22T16:34:54.294Z,5.57
2023-04-22T16:35:56.066Z,8.93
2023-04-22T16:36:57.691Z,5.78
2023-04-22T16:37:59.280Z,7.32
2023-04-22T16:39:00.926Z,4.88
2023-04-22T16:40:03.167Z,5.53
2023-04-22T16:41:05.053Z,4.45
2023-04-22T16:42:06.894Z,4.13
2023-04-22T16:43:09.465Z,4.65
2023-04-22T16:44:11.017Z,5.40
2023-04-22T16:45:12.646Z,4.72
2023-04-22T16:46:14.433Z,4.70
2023-04-22T16:47:16.167Z,5.20
2023-04-22T16:48:17.753Z,3.20
2023-04-22T16:49:19.373Z,4.70
2023-04-22T16:50:21.119Z,12.75
2023-04-22T16:51:22.797Z,10.23
2023-04-22T16:52:24.399Z,7.38
2023-04-22T16:53:26.048Z,6.10
2023-04-22T16:54:27.732Z,5.82
2023-04-22T16:55:29.264Z,5.95
2023-04-22T16:56:30.965Z,6.18
2023-04-22T16:57:33.003Z,3.80
2023-04-22T16:58:34.669Z,7.43
2023-04-22T16:59:36.408Z,5.28
2023-04-22T17:00:38.068Z,4.78
2023-04-22T17:01:41.131Z,6.20
2023-04-22T17:02:42.976Z,6.40
2023-04-22T17:03:44.806Z,5.28
2023-04-22T17:04:46.510Z,6.13
2023-04-22T17:05:48.216Z,4.82
2023-04-22T17:06:49.874Z,3.97
2023-04-22T17:07:51.476Z,6.35
2023-04-22T17:08:53.139Z,6.18
2023-04-22T17:09:54.732Z,4.97
2023-04-22T17:10:56.460Z,5.18
2023-04-22T17:11:58.375Z,6.70
2023-04-22T17:12:59.968Z,4.50
2023-04-22T17:14:01.607Z,3.88
2023-04-22T17:15:04.184Z,3.60
2023-04-22T17:17:07.526Z,6.03
2023-04-22T17:18:09.432Z,5.88
2023-04-22T17:19:11.144Z,4.10
2023-04-22T17:20:12.741Z,7.25
2023-04-22T17:22:16.405Z,5.35
2023-04-22T17:23:17.996Z,5.70
2023-04-22T17:24:21.157Z,5.30
2023-04-22T17:25:24.220Z,5.80
2023-04-22T17:26:26.145Z,3.95
2023-04-22T17:27:27.847Z,4.18
2023-04-22T17:28:29.588Z,6.45
2023-04-22T17:29:31.209Z,6.50
2023-04-22T17:30:32.868Z,5.35
2023-04-22T17:31:34.552Z,5.90
2023-04-22T17:32:36.240Z,4.93
2023-04-22T17:33:37.797Z,6.50
2023-04-22T17:34:40.017Z,5.15
2023-04-22T17:35:41.760Z,10.10
2023-04-22T17:36:43.374Z,6.93
2023-04-22T17:37:45.029Z,6.32
2023-04-22T17:38:46.628Z,8.07
2023-04-22T17:39:48.240Z,6.07
2023-04-22T17:40:49.856Z,6.28
2023-04-22T17:41:51.469Z,7.05
2023-04-22T17:42:53.131Z,7.40
2023-04-22T17:43:55.096Z,6.55
2023-04-22T17:44:56.880Z,11.93
2023-04-22T17:45:58.397Z,7.20
2023-04-22T17:47:00.060Z,5.88
2023-04-22T17:48:02.400Z,6.15
2023-04-22T17:49:04.075Z,8.38
2023-04-22T17:50:05.903Z,6.57
2023-04-22T17:51:07.529Z,13.68
2023-04-22T17:52:09.242Z,13.45
2023-04-22T17:53:11.503Z,8.25
2023-04-22T17:54:13.290Z,6.28
2023-04-22T17:55:14.956Z,6.72
2023-04-22T17:56:16.564Z,6.72
2023-04-22T17:57:18.174Z,7.70
2023-04-22T17:58:19.821Z,7.15
2023-04-22T17:59:21.429Z,10.48
2023-04-22T18:00:23.021Z,8.50
2023-04-22T18:01:24.724Z,9.32
2023-04-22T18:02:26.468Z,8.13
2023-04-22T18:03:28.559Z,9.77
2023-04-22T18:04:32.003Z,8.48
2023-04-22T18:05:33.597Z,11.15
2023-04-22T18:06:35.245Z,9.05
2023-04-22T18:07:36.976Z,9.63
2023-04-22T18:08:38.644Z,9.32
2023-04-22T18:09:40.475Z,11.27
2023-04-22T18:10:42.303Z,11.95
2023-04-22T18:11:43.977Z,11.82
2023-04-22T18:12:45.550Z,11.32
2023-04-22T18:13:47.357Z,9.65
2023-04-22T18:14:48.972Z,9.10
2023-04-22T18:15:50.571Z,10.00
2023-04-22T18:16:52.595Z,8.43
2023-04-22T18:17:54.288Z,8.32
2023-04-22T18:18:55.984Z,8.80
2023-04-22T18:20:09.831Z,8.43
2023-04-22T18:21:18.699Z,9.02
2023-04-22T18:22:20.553Z,7.88